createdAt,value
2022-08-16T00:02:46.247Z,13.0
2022-08-16T00:07:56.264Z,13.0
2022-08-16T00:12:59.039Z,16.0
2022-08-16T00:18:04.750Z,19.0
2022-08-16T00:23:10.954Z,19.0
2022-08-16T00:28:17.164Z,20.0
2022-08-16T00:33:23.371Z,19.0
2022-08-16T00:38:41.349Z,19.0
2022-08-16T00:43:42.655Z,19.0
2022-08-16T00:48:44.127Z,17.0
2022-08-16T00:53:48.203Z,16.0
2022-08-16T00:58:54.416Z,16.0
2022-08-16T01:04:00.642Z,17.0
2022-08-16T01:09:06.836Z,17.0
2022-08-16T01:14:13.633Z,20.0
2022-08-16T01:19:19.249Z,19.0
2022-08-16T01:24:51.451Z,19.0
2022-08-16T01:29:56.764Z,19.0
2022-08-16T01:34:47.030Z,19.0
2022-08-16T01:39:44.185Z,19.0
2022-08-16T01:44:50.298Z,20.0
2022-08-16T01:51:05.039Z,21.0
2022-08-16T01:55:02.709Z,22.0
2022-08-16T02:00:10.456Z,21.0
2022-08-16T02:05:15.129Z,21.0
2022-08-16T02:10:21.333Z,19.0
2022-08-16T02:15:27.550Z,18.0
2022-08-16T02:20:33.758Z,18.0
2022-08-16T02:25:52.674Z,19.0
2022-08-16T02:30:50.599Z,18.0
2022-08-16T02:35:55.101Z,17.0
2022-08-16T02:40:57.616Z,16.0
2022-08-16T02:46:07.643Z,16.0
2022-08-16T02:51:11.320Z,15.0
2022-08-16T02:56:16.282Z,15.0
2022-08-16T03:01:24.683Z,15.0
2022-08-16T03:06:41.524Z,14.0
2022-08-16T03:11:35.301Z,15.0
2022-08-16T03:16:58.638Z,14.0
2022-08-16T03:21:47.270Z,14.0
2022-08-16T03:26:53.481Z,15.0
2022-08-16T03:32:01.130Z,14.0
2022-08-16T03:37:05.895Z,14.0
2022-08-16T03:42:12.110Z,14.0
2022-08-16T03:47:19.001Z,14.0
2022-08-16T03:52:31.343Z,13.0
2022-08-16T03:57:31.878Z,13.0
2022-08-16T04:02:36.940Z,13.0
2022-08-16T04:07:43.149Z,14.0
2022-08-16T04:12:53.170Z,14.0
2022-08-16T04:17:55.568Z,14.0
2022-08-16T04:23:01.777Z,14.0
2022-08-16T04:28:52.144Z,13.0
2022-08-16T04:33:14.198Z,13.0
2022-08-16T04:38:21.284Z,14.0
2022-08-16T04:43:26.941Z,14.0
2022-08-16T04:48:34.390Z,14.0
2022-08-16T04:53:41.302Z,14.5
2022-08-16T04:58:46.618Z,15.0
2022-08-16T05:04:00.809Z,15.0
2022-08-16T05:08:57.650Z,15.0
2022-08-16T05:14:06.756Z,15.0
2022-08-16T05:19:13.190Z,15.0
2022-08-16T05:24:16.279Z,15.0
2022-08-16T05:29:24.787Z,16.0
2022-08-16T05:34:28.693Z,16.0
2022-08-16T05:39:40.621Z,16.0
2022-08-16T05:44:41.118Z,17.0
2022-08-16T05:49:50.526Z,17.0
2022-08-16T05:55:01.104Z,17.0
2022-08-16T06:00:01.171Z,18.0
2022-08-16T06:05:05.947Z,17.0
2022-08-16T06:10:12.155Z,19.0
2022-08-16T06:15:18.366Z,19.0
2022-08-16T06:20:25.591Z,19.0
2022-08-16T06:25:35.974Z,19.0
2022-08-16T06:30:43.877Z,20.0
2022-08-16T06:35:43.201Z,19.0
2022-08-16T06:40:49.448Z,20.0
2022-08-16T06:45:55.620Z,20.0
2022-08-16T06:51:01.825Z,18.0
2022-08-16T06:56:14.241Z,18.0
2022-08-16T07:01:15.815Z,19.0
2022-08-16T07:06:21.877Z,19.0
2022-08-16T07:11:45.988Z,18.0
2022-08-16T07:16:32.878Z,18.0
2022-08-16T07:21:46.623Z,19.0
2022-08-16T07:26:48.562Z,19.0
2022-08-16T07:31:51.497Z,18.0
2022-08-16T07:36:58.098Z,17.0
2022-08-16T07:42:03.917Z,16.0
2022-08-16T07:47:11.237Z,15.0
2022-08-16T07:52:20.053Z,15.0
2022-08-16T07:57:24.049Z,14.0
2022-08-16T08:02:28.754Z,13.0
2022-08-16T08:07:33.972Z,14.0
2022-08-16T08:12:40.179Z,15.0
2022-08-16T08:17:46.408Z,14.0
2022-08-16T08:22:52.602Z,13.0
2022-08-16T08:27:58.829Z,12.0
2022-08-16T08:33:05.416Z,12.0
2022-08-16T08:38:11.252Z,11.0
2022-08-16T08:43:18.329Z,9.0
2022-08-16T08:48:33.412Z,9.0
2022-08-16T08:53:30.347Z,9.0
2022-08-16T08:58:36.105Z,9.0
2022-08-16T09:03:42.349Z,9.0
2022-08-16T09:08:48.540Z,9.0
2022-08-16T09:13:54.761Z,8.0
2022-08-16T09:19:03.799Z,7.0
2022-08-16T09:24:10.011Z,7.0
2022-08-16T09:29:16.849Z,6.0
2022-08-16T09:34:19.654Z,7.0
2022-08-16T09:39:25.922Z,6.0
2022-08-16T09:45:09.723Z,5.0
2022-08-16T09:49:40.984Z,5.0
2022-08-16T09:54:45.317Z,5.0
2022-08-16T09:59:56.194Z,5.0
2022-08-16T10:04:57.097Z,4.0
2022-08-16T10:10:03.190Z,4.0
2022-08-16T10:15:09.403Z,5.0
2022-08-16T10:20:18.541Z,5.0
2022-08-16T10:27:16.614Z,5.0
2022-08-16T10:30:28.490Z,5.0
2022-08-16T10:35:34.275Z,5.0
2022-08-16T10:40:40.507Z,5.0
2022-08-16T10:45:57.229Z,4.5
2022-08-16T10:50:52.925Z,5.0
2022-08-16T10:55:59.148Z,4.0
2022-08-16T11:06:12.367Z,4.0
2022-08-16T11:11:19.683Z,4.0
2022-08-16T11:16:27.810Z,4.0
2022-08-16T11:21:30.239Z,4.0
2022-08-16T11:26:36.429Z,4.0
2022-08-16T11:31:45.846Z,4.0
2022-08-16T11:36:53.530Z,4.0
2022-08-16T11:41:55.055Z,4.0
2022-08-16T11:47:01.495Z,4.0
2022-08-16T11:52:07.484Z,4.0
2022-08-16T11:57:13.691Z,4.0
2022-08-16T12:02:31.115Z,4.0
2022-08-16T12:07:26.116Z,4.0
2022-08-16T12:12:32.775Z,4.0
2022-08-16T12:17:38.527Z,4.0
2022-08-16T12:22:44.798Z,4.0
2022-08-16T12:27:50.951Z,4.0
2022-08-16T12:32:58.481Z,4.0
2022-08-16T12:38:10.353Z,4.0
2022-08-16T12:43:09.623Z,4.0
2022-08-16T12:48:33.782Z,4.0
2022-08-16T12:53:22.009Z,4.0
2022-08-16T12:58:49.442Z,3.0
2022-08-16T13:03:40.193Z,4.0
2022-08-16T13:08:40.643Z,3.0
2022-08-16T13:13:46.852Z,3.0
2022-08-16T13:18:54.446Z,4.0
2022-08-16T13:23:59.271Z,3.0
2022-08-16T13:29:05.482Z,3.0
2022-08-16T13:34:11.695Z,3.0
2022-08-16T13:39:16.920Z,2.0
2022-08-16T13:44:35.941Z,2.0
2022-08-16T13:49:29.763Z,3.0
2022-08-16T13:54:35.565Z,3.0
2022-08-16T13:59:41.768Z,3.0
2022-08-16T14:04:47.983Z,3.0
2022-08-16T14:09:55.156Z,3.0
2022-08-16T14:15:00.399Z,2.0
2022-08-16T14:20:06.669Z,2.0
2022-08-16T14:25:12.825Z,3.0
2022-08-16T14:30:19.032Z,2.0
2022-08-16T14:35:36.601Z,2.0
2022-08-16T14:40:31.479Z,2.0
2022-08-16T14:45:37.665Z,3.0
2022-08-16T14:50:43.876Z,2.0
2022-08-16T14:55:50.122Z,2.0
2022-08-16T15:00:56.421Z,3.0
2022-08-16T15:06:02.512Z,3.0
2022-08-16T15:11:08.731Z,3.0
2022-08-16T15:16:14.967Z,3.0
2022-08-16T15:21:21.146Z,8.0
2022-08-16T15:26:29.742Z,9.0
2022-08-16T15:31:33.560Z,7.0
2022-08-16T15:36:39.773Z,7.0
2022-08-16T15:41:47.019Z,7.0
2022-08-16T15:46:55.750Z,6.0
2022-08-16T15:51:58.408Z,7.0
2022-08-16T15:57:11.396Z,7.0
2022-08-16T16:02:10.829Z,7.0
2022-08-16T16:07:17.060Z,6.0
2022-08-16T16:12:53.633Z,6.0
2022-08-16T16:17:29.460Z,7.0
2022-08-16T16:22:37.170Z,6.0
2022-08-16T16:27:41.930Z,6.0
2022-08-16T16:32:48.090Z,6.0
2022-08-16T16:37:54.303Z,6.0
2022-08-16T16:43:00.516Z,7.0
2022-08-16T16:48:12.648Z,6.0
2022-08-16T16:53:16.898Z,7.0
2022-08-16T16:58:35.508Z,6.0
2022-08-16T17:03:25.471Z,6.0
2022-08-16T17:08:31.570Z,6.0
2022-08-16T17:13:37.779Z,5.0
2022-08-16T17:19:16.658Z,6.0
2022-08-16T17:23:58.200Z,6.0
2022-08-16T17:28:58.071Z,5.0
2022-08-16T17:34:05.472Z,4.0
2022-08-16T17:39:09.422Z,4.0
2022-08-16T17:44:15.088Z,6.0
2022-08-16T17:49:21.294Z,6.0
2022-08-16T17:54:30.208Z,6.0
2022-08-16T17:59:38.373Z,5.0
2022-08-16T18:04:48.763Z,6.0
2022-08-16T18:09:46.173Z,7.0
2022-08-16T18:14:54.880Z,7.0
2022-08-16T18:19:58.614Z,8.0
2022-08-16T18:25:04.832Z,9.0
2022-08-16T18:30:11.060Z,10.0
2022-08-16T18:35:17.278Z,11.0
2022-08-16T18:40:23.500Z,12.0
2022-08-16T18:45:35.607Z,10.0
2022-08-16T18:51:03.941Z,10.0
2022-08-16T18:55:45.215Z,10.0
2022-08-16T19:00:56.083Z,10.0
2022-08-16T19:05:54.809Z,11.0
2022-08-16T19:11:00.048Z,11.0
2022-08-16T19:16:06.252Z,11.0
2022-08-16T19:21:12.461Z,12.0
2022-08-16T19:26:24.904Z,12.0
2022-08-16T19:31:24.894Z,12.0
2022-08-16T19:36:36.122Z,12.0
2022-08-16T19:41:36.331Z,13.0
2022-08-16T19:46:42.538Z,13.0
2022-08-16T19:51:48.749Z,13.0
2022-08-16T19:56:54.980Z,14.0
2022-08-16T20:02:01.166Z,14.0
2022-08-16T20:07:07.382Z,15.0
2022-08-16T20:12:13.583Z,16.0
2022-08-16T20:17:19.796Z,16.0
2022-08-16T20:22:52.067Z,16.0
2022-08-16T20:27:32.213Z,17.0
2022-08-16T20:32:38.420Z,18.0
2022-08-16T20:37:44.643Z,18.0
2022-08-16T20:42:57.448Z,19.0
2022-08-16T20:47:57.052Z,20.0
2022-08-16T20:53:03.263Z,21.0
2022-08-16T20:58:09.474Z,19.0
2022-08-16T21:03:15.682Z,19.0
2022-08-16T21:08:50.905Z,21.5
2022-08-16T21:13:28.105Z,23.0
2022-08-16T21:18:34.308Z,21.0
2022-08-16T21:23:40.519Z,22.0
2022-08-16T21:28:46.729Z,22.0
2022-08-16T21:33:55.219Z,23.0
2022-08-16T21:38:59.146Z,23.0
2022-08-16T21:44:05.370Z,23.0
2022-08-16T21:49:11.562Z,23.0
2022-08-16T21:54:17.772Z,22.0
2022-08-16T21:59:23.979Z,24.0
2022-08-16T22:04:37.678Z,24.0
2022-08-16T22:09:36.405Z,25.0
2022-08-16T22:14:42.605Z,26.5
2022-08-16T22:19:48.817Z,26.0
2022-08-16T22:24:55.036Z,27.0
2022-08-16T22:30:01.237Z,27.0
2022-08-16T22:35:11.659Z,27.0
2022-08-16T22:40:13.695Z,28.0
2022-08-16T22:45:19.866Z,30.0
2022-08-16T22:50:26.079Z,31.5
2022-08-16T22:55:32.280Z,32.0
2022-08-16T23:00:38.491Z,32.5
2022-08-16T23:05:44.698Z,31.0
2022-08-16T23:10:50.909Z,32.0
2022-08-16T23:15:57.117Z,31.0
2022-08-16T23:21:03.325Z,33.0
2022-08-16T23:41:28.157Z,31.0
2022-08-16T23:46:33.396Z,30.0
2022-08-16T23:51:45.730Z,29.0
2022-08-16T23:56:50.966Z,30.0
